Time;durP1;ratioP1;P1;durP2;ratioP2;P2;SDS_P1;SDS_P2;PMS_P1;PMS_P2;Temp;Humidity;BMP_temperature;BMP_pressure;BME280_temperature;BME280_humidity;BME280_pressure;Samples;Min_cycle;Max_cycle;Signal;HPM_P1;HPM_P2
2022/09/18 00:00:12;;;;;;;1.65;0.70;;;;;;;10.97;72.50;98961.44;4916781;29;20048;-66
2022/09/18 00:02:38;;;;;;;1.13;0.57;;;;;;;11.01;72.49;98956.59;4917913;29;20040;-67
2022/09/18 00:05:05;;;;;;;2.42;0.75;;;;;;;11.05;72.33;98963.13;4916623;29;20066;-67
2022/09/18 00:07:32;;;;;;;1.15;0.63;;;;;;;11.04;72.00;98970.25;4917588;29;20123;-68
2022/09/18 00:09:58;;;;;;;2.92;0.80;;;;;;;11.03;72.05;98965.19;4916752;29;20108;-68
2022/09/18 00:12:25;;;;;;;1.52;1.33;;;;;;;11.02;72.14;98961.72;4908236;29;20044;-68
2022/09/18 00:14:54;;;;;;;0.55;0.55;;;;;;;11.04;72.16;98962.31;4917481;29;20411;-68
2022/09/18 00:17:21;;;;;;;2.22;0.70;;;;;;;11.06;72.30;98952.38;4916245;29;20044;-67
2022/09/18 00:19:47;;;;;;;0.50;0.50;;;;;;;11.11;72.49;98954.44;4916371;29;20043;-67
2022/09/18 00:22:14;;;;;;;1.23;0.77;;;;;;;11.13;71.82;98949.78;4917563;29;20075;-67
2022/09/18 00:24:41;;;;;;;1.75;0.70;;;;;;;11.15;72.13;98950.41;4915567;29;20051;-68
2022/09/18 00:27:07;;;;;;;2.50;0.70;;;;;;;11.15;71.64;98948.59;4915804;29;20050;-67
2022/09/18 00:29:34;;;;;;;0.50;0.50;;;;;;;11.16;71.85;98950.22;4916241;29;20161;-67
2022/09/18 00:32:00;;;;;;;1.88;0.68;;;;;;;11.14;71.42;98949.59;4917112;29;20099;-66
2022/09/18 00:34:27;;;;;;;0.98;0.70;;;;;;;11.13;71.88;98947.94;4915795;29;20077;-67
2022/09/18 00:36:53;;;;;;;1.98;0.70;;;;;;;11.10;71.45;98944.84;4915860;29;20055;-68
2022/09/18 00:39:20;;;;;;;1.50;1.00;;;;;;;11.07;71.55;98940.78;4915911;29;20056;-67
2022/09/18 00:41:47;;;;;;;1.58;0.80;;;;;;;11.06;72.02;98938.31;4902352;29;20125;-66
2022/09/18 00:44:39;;;;;;;1.95;0.80;;;;;;;11.01;71.89;98943.38;4915650;29;20063;-67
2022/09/18 00:47:09;;;;;;;2.22;0.90;;;;;;;10.98;72.12;98951.69;4916911;29;20044;-67
2022/09/18 00:49:43;;;;;;;0.98;0.70;;;;;;;10.97;71.78;98944.75;4917009;29;20056;-67
2022/09/18 00:52:12;;;;;;;2.17;1.05;;;;;;;10.94;72.00;98945.13;4915879;29;20048;-67
2022/09/18 00:54:43;;;;;;;2.55;1.10;;;;;;;10.89;71.95;98945.72;4915528;29;20055;-66
2022/09/18 00:57:26;;;;;;;1.95;0.93;;;;;;;10.88;71.82;98944.09;4899638;29;20424;-67
2022/09/18 00:59:53;;;;;;;1.02;0.90;;;;;;;10.87;72.35;98951.22;4915668;29;20095;-67
2022/09/18 01:02:20;;;;;;;1.20;0.70;;;;;;;10.89;72.49;98956.28;4916823;29;20047;-67
2022/09/18 01:04:48;;;;;;;1.02;0.70;;;;;;;10.89;72.08;98951.81;4916537;29;20046;-67
2022/09/18 01:07:54;;;;;;;2.17;0.77;;;;;;;10.90;72.18;98956.13;4915168;29;20067;-67
2022/09/18 01:10:24;;;;;;;0.88;0.70;;;;;;;10.86;71.92;98960.16;4915466;29;20055;-67
2022/09/18 01:12:55;;;;;;;1.08;0.88;;;;;;;10.85;72.18;98950.56;4914918;29;20493;-67
2022/09/18 01:15:40;;;;;;;1.92;0.80;;;;;;;10.88;72.27;98954.66;4915171;29;20063;-67
2022/09/18 01:18:23;;;;;;;0.85;0.68;;;;;;;10.89;72.27;98951.81;4916179;29;20048;-67
2022/09/18 01:21:04;;;;;;;0.65;0.50;;;;;;;10.88;72.17;98944.91;4915309;29;20052;-67
2022/09/18 01:23:41;;;;;;;0.85;0.52;;;;;;;10.85;72.09;98957.69;4899816;29;20059;-67
2022/09/18 01:26:23;;;;;;;1.02;0.70;;;;;;;10.83;72.51;98944.66;4915915;29;20052;-67
2022/09/18 01:28:55;;;;;;;0.57;0.50;;;;;;;10.82;72.38;98939.56;4899314;29;20052;-68
2022/09/18 01:31:28;;;;;;;1.23;0.75;;;;;;;10.82;72.36;98943.03;4899433;29;20048;-68
2022/09/18 01:34:22;;;;;;;1.70;0.68;;;;;;;10.82;72.59;98945.69;4915027;29;20048;-67
2022/09/18 01:36:54;;;;;;;1.13;0.60;;;;;;;10.82;72.34;98942.22;4915663;29;20122;-67
2022/09/18 01:39:32;;;;;;;0.70;0.70;;;;;;;10.81;72.46;98933.44;4915027;29;20096;-66
2022/09/18 01:42:02;;;;;;;0.95;0.70;;;;;;;10.81;72.45;98935.28;4914623;29;20059;-67
2022/09/18 01:44:31;;;;;;;2.13;0.80;;;;;;;10.81;72.86;98936.09;4914656;29;20055;-67
2022/09/18 01:47:04;;;;;;;0.93;0.80;;;;;;;10.85;73.04;98939.16;4914628;29;20139;-68
2022/09/18 01:49:38;;;;;;;0.93;0.70;;;;;;;10.87;72.53;98939.81;4899836;29;20512;-68
2022/09/18 01:52:10;;;;;;;0.60;0.60;;;;;;;10.87;72.85;98943.28;4914670;29;20099;-67
2022/09/18 01:54:43;;;;;;;1.05;0.60;;;;;;;10.88;72.66;98944.91;4899419;29;20082;-67
2022/09/18 01:57:24;;;;;;;3.65;1.02;;;;;;;10.89;72.41;98953.66;4898826;29;20484;-67
2022/09/18 02:00:01;;;;;;;1.48;0.70;;;;;;;10.89;72.83;98953.66;4915100;29;20055;-68
2022/09/18 02:02:57;;;;;;;1.95;0.70;;;;;;;10.87;72.52;98951.22;4915995;29;20117;-68
2022/09/18 02:05:30;;;;;;;1.50;0.70;;;;;;;10.88;72.73;98949.38;4899467;29;20119;-67
2022/09/18 02:08:15;;;;;;;1.48;0.85;;;;;;;10.88;72.69;98952.03;4914513;29;20052;-67
2022/09/18 02:10:50;;;;;;;2.13;1.02;;;;;;;10.87;72.32;98948.56;4914525;29;20044;-67
2022/09/18 02:13:23;;;;;;;1.27;0.60;;;;;;;10.86;72.71;98940.81;4906911;29;20107;-68
2022/09/18 02:15:55;;;;;;;0.60;0.57;;;;;;;10.86;72.53;98944.28;4914612;29;20048;-66
2022/09/18 02:18:29;;;;;;;1.70;0.98;;;;;;;10.86;72.66;98938.19;4914455;29;20051;-67
2022/09/18 02:20:57;;;;;;;2.83;0.80;;;;;;;10.85;72.75;98936.53;4899326;29;20071;-67
2022/09/18 02:23:25;;;;;;;2.38;0.82;;;;;;;10.83;72.41;98939.38;4914527;29;20186;-66
2022/09/18 02:26:03;;;;;;;0.82;0.55;;;;;;;10.83;72.55;98943.84;4914341;29;20148;-66
2022/09/18 02:28:31;;;;;;;2.47;1.17;;;;;;;10.85;72.47;98941.81;4898951;29;20055;-66
2022/09/18 02:30:59;;;;;;;1.33;0.80;;;;;;;10.84;72.59;98933.06;4914565;29;20048;-66
2022/09/18 02:33:27;;;;;;;0.63;0.60;;;;;;;10.85;72.79;98936.53;4914387;29;20531;-68
2022/09/18 02:36:18;;;;;;;0.93;0.52;;;;;;;10.83;72.52;98933.28;4914562;29;20059;-67
2022/09/18 02:38:56;;;;;;;0.70;0.70;;;;;;;10.81;72.64;98941.38;4914595;29;20055;-67
2022/09/18 02:41:25;;;;;;;1.65;0.77;;;;;;;10.82;72.53;98929.00;4914342;29;20464;-66
2022/09/18 02:44:13;;;;;;;1.30;0.85;;;;;;;10.84;72.62;98935.72;4906735;29;20056;-67
2022/09/18 02:46:56;;;;;;;0.50;0.50;;;;;;;10.85;72.80;98940.00;4915314;29;20054;-68
2022/09/18 02:49:43;;;;;;;3.33;0.85;;;;;;;10.89;72.59;98941.25;4918298;29;20055;-67
2022/09/18 02:52:18;;;;;;;1.08;0.70;;;;;;;10.89;72.46;98941.25;4917893;29;20084;-69
2022/09/18 02:55:01;;;;;;;1.45;0.70;;;;;;;10.89;72.28;98933.31;4902608;29;20052;-67
2022/09/18 02:57:35;;;;;;;1.95;0.60;;;;;;;10.89;72.26;98937.78;4901990;29;20509;-67
2022/09/18 03:00:07;;;;;;;1.20;0.70;;;;;;;10.89;72.58;98938.59;4917770;29;20088;-68
2022/09/18 03:02:36;;;;;;;1.33;0.73;;;;;;;10.93;72.30;98938.22;4917906;29;20055;-67
2022/09/18 03:05:04;;;;;;;0.95;0.60;;;;;;;10.95;72.52;98933.56;4917545;29;20056;-66
2022/09/18 03:07:38;;;;;;;0.50;0.50;;;;;;;10.97;72.25;98931.53;4902835;29;20048;-67
2022/09/18 03:10:06;;;;;;;0.60;0.60;;;;;;;10.98;72.30;98934.00;4917613;29;20100;-67
2022/09/18 03:12:33;;;;;;;1.45;0.70;;;;;;;10.99;72.13;98926.88;4917401;29;20043;-67
2022/09/18 03:15:01;;;;;;;1.92;0.70;;;;;;;10.99;72.24;98929.53;4917363;29;20500;-67
2022/09/18 03:17:28;;;;;;;2.13;0.90;;;;;;;10.99;72.51;98932.19;4919494;29;20052;-66
2022/09/18 03:19:54;;;;;;;1.15;0.60;;;;;;;11.01;72.57;98924.84;4919095;29;20040;-67
2022/09/18 03:22:21;;;;;;;0.95;0.70;;;;;;;11.02;72.52;98929.97;4918286;29;20067;-67
2022/09/18 03:24:48;;;;;;;1.25;0.80;;;;;;;11.07;72.74;98922.28;4902749;29;20456;-67
2022/09/18 03:27:16;;;;;;;1.05;0.68;;;;;;;11.09;72.57;98914.94;4917199;29;20056;-68
2022/09/18 03:29:46;;;;;;;0.90;0.70;;;;;;;11.15;72.41;98923.94;4902017;29;20052;-68
2022/09/18 03:32:15;;;;;;;0.88;0.55;;;;;;;11.15;72.39;98923.94;4902245;29;20501;-67
2022/09/18 03:34:47;;;;;;;1.17;0.60;;;;;;;11.20;72.26;98921.53;4917563;29;20056;-67
2022/09/18 03:37:15;;;;;;;1.27;0.60;;;;;;;11.24;72.37;98927.25;4916983;29;20071;-68
2022/09/18 03:39:43;;;;;;;0.80;0.80;;;;;;;11.25;72.26;98924.41;4917419;29;20052;-67
2022/09/18 03:42:12;;;;;;;1.10;0.68;;;;;;;11.25;72.00;98927.06;4901541;29;20044;-67
2022/09/18 03:44:38;;;;;;;1.63;0.70;;;;;;;11.24;72.20;98920.13;4910625;29;20087;-66
2022/09/18 03:47:15;;;;;;;0.77;0.70;;;;;;;11.25;72.00;98927.06;4914320;29;20060;-67
2022/09/18 03:49:41;;;;;;;0.77;0.73;;;;;;;11.25;72.03;98919.13;4913764;29;20056;-67
2022/09/18 03:52:08;;;;;;;1.33;0.80;;;;;;;11.25;71.83;98916.47;4898364;29;20135;-67
2022/09/18 03:54:42;;;;;;;1.27;0.70;;;;;;;11.24;72.15;98920.13;4916174;29;20416;-68
2022/09/18 03:57:16;;;;;;;1.88;1.00;;;;;;;11.23;72.43;98918.50;4899586;29;20476;-67
2022/09/18 04:03:00;;;;;;;1.92;1.08;;;;;;;11.25;71.79;98921.78;5162258;23;20056;-66
2022/09/18 04:05:30;;;;;;;0.98;0.70;;;;;;;11.25;72.09;98932.34;4917751;29;20135;-66
2022/09/18 04:08:16;;;;;;;1.13;0.93;;;;;;;11.27;71.98;98932.19;4910950;29;20452;-64
2022/09/18 04:11:18;;;;;;;2.30;0.60;;;;;;;11.25;72.18;98932.34;4910036;29;20131;-66
2022/09/18 04:13:44;;;;;;;1.40;0.90;;;;;;;11.26;72.00;98939.28;4916381;29;20504;-66
2022/09/18 04:16:12;;;;;;;2.33;0.90;;;;;;;11.26;71.72;98935.81;4916625;29;20052;-65
2022/09/18 04:18:39;;;;;;;1.23;0.90;;;;;;;11.28;72.21;98933.81;4916099;29;20052;-65
2022/09/18 04:21:07;;;;;;;1.98;0.93;;;;;;;11.30;72.19;98937.88;4916486;29;20058;-65
2022/09/18 04:23:33;;;;;;;1.40;0.80;;;;;;;11.28;71.64;98929.31;4917779;29;20071;-65
2022/09/18 04:26:07;;;;;;;1.30;0.98;;;;;;;11.27;71.68;98929.53;4917514;29;20167;-64
2022/09/18 04:28:38;;;;;;;1.38;0.80;;;;;;;11.23;71.98;98933.56;4916445;29;20447;-65
2022/09/18 04:31:05;;;;;;;2.38;1.00;;;;;;;11.22;71.91;98935.38;4916155;29;20052;-65
2022/09/18 04:33:32;;;;;;;2.03;0.90;;;;;;;11.22;71.97;98932.72;4900226;29;20404;-64
2022/09/18 04:35:58;;;;;;;1.58;1.00;;;;;;;11.21;71.83;98920.53;4923793;29;20052;-65
2022/09/18 04:38:26;;;;;;;1.52;0.82;;;;;;;11.20;71.99;98926.00;4915894;29;20051;-65
2022/09/18 04:40:59;;;;;;;2.45;0.90;;;;;;;11.16;71.79;98918.47;4915954;29;20048;-65
2022/09/18 04:43:27;;;;;;;1.60;1.00;;;;;;;11.12;71.96;98919.84;4915970;29;20056;-65
2022/09/18 04:45:54;;;;;;;1.65;0.90;;;;;;;11.11;71.85;98923.53;4915777;29;20063;-65
2022/09/18 04:48:21;;;;;;;0.90;0.80;;;;;;;11.16;72.06;98926.41;4916232;29;20138;-65
2022/09/18 04:50:48;;;;;;;2.58;0.77;;;;;;;11.20;71.98;98928.66;4915856;29;20072;-65
2022/09/18 04:53:17;;;;;;;2.78;0.90;;;;;;;11.21;71.90;98928.47;4916953;29;20459;-65
2022/09/18 04:55:46;;;;;;;1.42;0.80;;;;;;;11.23;71.93;98923.81;4915678;29;20058;-65
2022/09/18 04:58:16;;;;;;;2.30;0.95;;;;;;;11.23;71.70;98926.44;4915373;29;20143;-65
2022/09/18 05:00:47;;;;;;;3.90;0.95;;;;;;;11.23;71.82;98923.81;4900198;29;20576;-65
2022/09/18 05:03:18;;;;;;;2.00;1.10;;;;;;;11.20;71.43;98918.91;4920649;29;20035;-65
2022/09/18 05:05:47;;;;;;;1.38;0.90;;;;;;;11.20;71.86;98915.44;4918915;29;20044;-65
2022/09/18 05:08:15;;;;;;;1.42;0.90;;;;;;;11.22;71.62;98926.63;4934291;29;20158;-65
2022/09/18 05:10:42;;;;;;;2.03;1.00;;;;;;;11.23;71.86;98920.34;4934216;29;20123;-66
2022/09/18 05:13:10;;;;;;;1.05;0.93;;;;;;;11.23;71.48;98925.63;4934686;29;20047;-66
2022/09/18 05:15:42;;;;;;;1.27;0.95;;;;;;;11.21;71.50;98931.09;4934763;29;20424;-66
2022/09/18 05:18:10;;;;;;;0.95;0.60;;;;;;;11.24;71.75;98925.44;4918397;29;20051;-65
2022/09/18 05:20:38;;;;;;;0.73;0.60;;;;;;;11.31;71.87;98928.94;4934431;29;20058;-67
2022/09/18 05:23:06;;;;;;;0.85;0.80;;;;;;;11.33;71.36;98934.84;4934336;29;20048;-65
2022/09/18 05:25:35;;;;;;;2.28;0.80;;;;;;;11.34;71.16;98933.84;4934106;29;20051;-65
2022/09/18 05:28:02;;;;;;;1.38;0.88;;;;;;;11.34;71.05;98928.53;4933842;29;20044;-65
2022/09/18 05:30:42;;;;;;;0.85;0.60;;;;;;;11.35;71.21;98924.91;4920080;29;20055;-67
2022/09/18 05:33:10;;;;;;;1.50;0.90;;;;;;;11.36;71.17;98928.34;4933591;29;20040;-66
2022/09/18 05:35:38;;;;;;;1.10;0.80;;;;;;;11.33;71.27;98928.75;4910836;29;20070;-64
2022/09/18 05:38:05;;;;;;;1.17;0.85;;;;;;;11.31;71.04;98930.78;4934036;29;20082;-64
2022/09/18 05:40:35;;;;;;;1.35;0.82;;;;;;;11.26;71.05;98933.16;4934440;29;20568;-65
2022/09/18 05:43:03;;;;;;;1.02;0.85;;;;;;;11.24;70.89;98929.91;4935010;29;20479;-66
2022/09/18 05:45:32;;;;;;;3.63;0.90;;;;;;;11.20;70.69;98932.13;4933777;29;20551;-65
2022/09/18 05:48:04;;;;;;;0.77;0.73;;;;;;;11.16;70.91;98941.47;4933589;29;20051;-66
2022/09/18 05:50:33;;;;;;;0.80;0.70;;;;;;;11.15;71.00;98939.81;4933950;29;20055;-65
2022/09/18 05:53:07;;;;;;;2.92;1.02;;;;;;;11.18;71.07;98939.41;4934064;29;20094;-64
2022/09/18 05:55:43;;;;;;;1.90;0.90;;;;;;;11.19;71.05;98935.78;4934217;29;20530;-64
2022/09/18 05:58:13;;;;;;;1.58;0.80;;;;;;;11.22;70.76;98938.03;4933757;29;20059;-65
2022/09/18 06:00:40;;;;;;;0.82;0.52;;;;;;;11.24;70.63;98937.84;4933916;29;20048;-65
2022/09/18 06:03:15;;;;;;;3.25;0.82;;;;;;;11.27;70.55;98948.06;4918331;29;20638;-66
2022/09/18 06:05:50;;;;;;;2.22;0.80;;;;;;;11.31;70.84;98955.41;4925911;29;20384;-65
2022/09/18 06:08:17;;;;;;;2.63;0.70;;;;;;;11.32;70.57;98951.75;4934750;29;20047;-65
2022/09/18 06:10:43;;;;;;;1.15;0.85;;;;;;;11.32;70.37;98950.94;4933567;29;20107;-65
2022/09/18 06:13:14;;;;;;;1.58;1.00;;;;;;;11.35;70.49;98955.84;4933394;29;20559;-65
2022/09/18 06:15:48;;;;;;;1.55;0.90;;;;;;;11.36;70.43;98953.00;4933758;29;20047;-65
2022/09/18 06:18:19;;;;;;;1.42;0.90;;;;;;;11.41;70.02;98957.72;4933624;29;20054;-66
2022/09/18 06:20:55;;;;;;;1.13;0.77;;;;;;;11.45;70.11;98960.78;4933806;29;20048;-65
2022/09/18 06:23:25;;;;;;;1.40;1.00;;;;;;;11.50;70.24;98959.19;4937589;29;20103;-65
2022/09/18 06:26:00;;;;;;;1.40;0.80;;;;;;;11.57;70.44;98957.41;4937716;29;20082;-65
2022/09/18 06:28:29;;;;;;;2.60;1.08;;;;;;;11.56;69.65;98960.25;4937297;29;20044;-65
2022/09/18 06:31:01;;;;;;;2.45;0.95;;;;;;;11.57;70.03;98956.59;4922037;29;20139;-65
2022/09/18 06:33:35;;;;;;;1.15;0.98;;;;;;;11.60;70.12;98959.66;4937128;29;20074;-64
2022/09/18 06:36:07;;;;;;;1.75;1.00;;;;;;;11.64;69.98;98962.75;4929139;29;20066;-65
2022/09/18 06:38:41;;;;;;;3.03;0.80;;;;;;;11.69;69.80;98959.50;4937268;29;20077;-64
2022/09/18 06:41:08;;;;;;;0.85;0.70;;;;;;;11.70;69.62;98964.59;4937317;29;20055;-65
2022/09/18 06:43:49;;;;;;;1.77;0.80;;;;;;;11.73;69.50;98964.22;4936860;29;20048;-65
2022/09/18 06:46:34;;;;;;;0.70;0.70;;;;;;;11.77;69.74;98968.09;4936849;29;20051;-65
2022/09/18 06:49:14;;;;;;;0.80;0.70;;;;;;;11.88;69.69;98964.94;4938063;29;20039;-65
2022/09/18 06:51:44;;;;;;;3.05;1.17;;;;;;;11.97;69.44;98967.41;4936838;29;20075;-66
2022/09/18 06:54:15;;;;;;;1.40;1.00;;;;;;;12.01;69.22;98971.31;4936938;29;20044;-65
2022/09/18 06:56:42;;;;;;;1.90;1.10;;;;;;;12.08;68.88;98970.31;4937769;29;20048;-65
2022/09/18 06:59:11;;;;;;;1.90;0.98;;;;;;;12.13;68.93;98970.53;4936814;29;20048;-65
2022/09/18 07:01:38;;;;;;;1.65;0.98;;;;;;;12.15;68.46;98970.31;4920909;29;20074;-65
2022/09/18 07:04:19;;;;;;;1.05;0.90;;;;;;;12.18;68.27;98961.16;4918860;29;20047;-65
2022/09/18 07:06:46;;;;;;;2.28;1.05;;;;;;;12.27;68.33;98971.38;4933351;29;20048;-65
2022/09/18 07:09:13;;;;;;;1.67;1.15;;;;;;;12.35;67.84;98973.84;4936402;29;20579;-65
2022/09/18 07:12:00;;;;;;;2.38;1.25;;;;;;;12.36;67.34;98970.19;4937102;29;20129;-65
2022/09/18 07:14:47;;;;;;;2.60;0.98;;;;;;;12.46;68.01;98967.16;4937073;29;20119;-66
2022/09/18 07:17:14;;;;;;;1.95;1.05;;;;;;;12.55;67.48;98975.75;4935999;29;20416;-65
2022/09/18 07:19:46;;;;;;;1.65;1.00;;;;;;;12.58;67.14;98972.69;4936287;29;20048;-65
2022/09/18 07:22:15;;;;;;;2.45;1.55;;;;;;;12.63;67.77;98978.22;4920582;29;20075;-66
2022/09/18 07:24:45;;;;;;;1.95;1.05;;;;;;;12.72;67.17;98978.84;4936172;29;20048;-65
2022/09/18 07:27:13;;;;;;;1.98;1.10;;;;;;;12.70;66.69;98978.22;4935793;29;20052;-65
2022/09/18 07:29:41;;;;;;;2.88;1.00;;;;;;;12.72;66.89;98981.47;4936052;29;20044;-65
2022/09/18 07:32:11;;;;;;;2.72;1.25;;;;;;;12.80;66.88;98992.72;4932437;29;20134;-65
2022/09/18 07:34:37;;;;;;;3.08;1.30;;;;;;;12.85;66.61;98992.91;4931765;29;20059;-65
2022/09/18 07:37:08;;;;;;;4.30;1.13;;;;;;;12.88;66.21;98989.88;4913751;29;20052;-65
2022/09/18 07:39:36;;;;;;;3.22;1.20;;;;;;;12.95;66.47;98984.59;4897992;29;20525;-64
2022/09/18 07:42:21;;;;;;;3.70;1.20;;;;;;;12.97;66.02;98987.03;4898364;29;20104;-65
2022/09/18 07:44:50;;;;;;;1.00;0.90;;;;;;;13.06;65.89;98988.44;4913723;29;20119;-65
2022/09/18 07:47:17;;;;;;;1.30;0.82;;;;;;;13.09;65.26;98982.72;4913405;29;20105;-64
2022/09/18 07:49:43;;;;;;;3.10;1.30;;;;;;;13.10;65.57;98981.72;4913682;29;20045;-65
2022/09/18 07:52:11;;;;;;;2.10;0.93;;;;;;;13.13;65.67;98989.28;4897834;29;20501;-64
2022/09/18 07:54:43;;;;;;;2.17;0.93;;;;;;;13.11;65.52;98993.97;4898004;29;20056;-64
2022/09/18 07:57:29;;;;;;;3.78;1.10;;;;;;;13.08;65.56;98994.38;4913987;29;20135;-64
2022/09/18 08:00:16;;;;;;;3.53;1.20;;;;;;;13.11;65.73;99001.94;4900819;29;20410;-64
2022/09/18 08:02:48;;;;;;;3.03;1.02;;;;;;;13.19;65.30;99003.59;4917379;29;20098;-64
2022/09/18 08:05:35;;;;;;;3.10;0.85;;;;;;;13.32;65.36;99000.94;4928922;29;20081;-64
2022/09/18 08:08:07;;;;;;;2.13;1.13;;;;;;;13.47;64.96;99000.72;4936899;29;20048;-63
2022/09/18 08:10:54;;;;;;;1.15;0.85;;;;;;;13.51;64.52;99002.78;4935667;29;20051;-65
2022/09/18 08:13:47;;;;;;;1.83;1.00;;;;;;;13.53;64.52;98995.41;4929564;29;20388;-65
2022/09/18 08:16:33;;;;;;;2.05;1.15;;;;;;;13.57;64.60;98993.97;4922094;29;20126;-66
2022/09/18 08:19:03;;;;;;;2.33;1.10;;;;;;;13.60;63.97;99006.84;4936880;29;20051;-65
2022/09/18 08:21:42;;;;;;;1.48;0.90;;;;;;;13.65;64.37;98987.63;4921746;29;20468;-65
2022/09/18 08:24:11;;;;;;;2.25;1.40;;;;;;;13.76;64.06;98991.50;4935292;29;20048;-65
2022/09/18 08:26:39;;;;;;;1.42;1.00;;;;;;;13.88;63.54;99000.44;4935034;29;20043;-65
2022/09/18 08:29:05;;;;;;;1.42;1.08;;;;;;;14.02;63.29;98994.03;4935592;29;20057;-65
2022/09/18 08:31:34;;;;;;;2.05;1.27;;;;;;;14.20;62.91;98993.34;4935868;29;20529;-66
2022/09/18 08:34:03;;;;;;;2.17;0.90;;;;;;;14.42;62.46;98993.88;4924930;29;20394;-65
2022/09/18 08:36:30;;;;;;;1.73;1.10;;;;;;;14.47;61.98;98991.38;4930134;29;20066;-66
2022/09/18 08:39:00;;;;;;;1.00;0.77;;;;;;;14.49;62.01;98985.88;4935457;29;20099;-66
2022/09/18 08:41:55;;;;;;;2.33;1.00;;;;;;;14.53;61.77;98985.25;4936702;29;20168;-65
2022/09/18 08:44:28;;;;;;;1.52;1.02;;;;;;;14.71;61.21;98984.53;4935265;29;20500;-66
2022/09/18 08:47:08;;;;;;;1.80;1.00;;;;;;;14.90;61.33;98987.25;4935024;29;20667;-66
2022/09/18 08:49:56;;;;;;;2.17;0.90;;;;;;;14.94;61.17;98989.28;4918998;29;20051;-66
2022/09/18 08:52:27;;;;;;;1.90;1.13;;;;;;;14.91;60.79;98992.38;4934673;29;20094;-66
2022/09/18 08:55:15;;;;;;;1.25;1.00;;;;;;;14.77;59.93;98983.66;4934443;29;20071;-66
2022/09/18 08:58:18;;;;;;;1.90;0.90;;;;;;;14.60;60.07;98977.22;4934307;29;20055;-66
2022/09/18 09:00:51;;;;;;;1.50;0.93;;;;;;;14.50;60.62;98984.88;4934476;29;20645;-66
2022/09/18 09:03:48;;;;;;;1.63;1.10;;;;;;;14.47;59.85;98980.75;4912732;29;20039;-66
2022/09/18 09:06:25;;;;;;;2.55;0.93;;;;;;;14.52;60.23;98975.63;4920462;29;20551;-66
2022/09/18 09:09:01;;;;;;;1.17;0.80;;;;;;;14.63;59.88;98973.34;4918723;29;20054;-66
2022/09/18 09:11:43;;;;;;;1.33;0.93;;;;;;;14.67;59.30;98979.84;4934268;29;20055;-66
2022/09/18 09:14:52;;;;;;;2.53;0.90;;;;;;;14.72;59.76;98986.16;4934232;29;20118;-66
2022/09/18 09:17:38;;;;;;;2.15;1.00;;;;;;;14.83;59.49;98977.50;4934086;29;20416;-65
2022/09/18 09:20:11;;;;;;;2.22;1.00;;;;;;;14.95;59.03;98980.28;4934200;29;20059;-66
2022/09/18 09:23:16;;;;;;;1.30;0.90;;;;;;;15.05;58.12;98979.78;4934084;29;20645;-66
2022/09/18 09:26:01;;;;;;;1.95;0.80;;;;;;;15.15;58.69;98976.66;4917785;29;20412;-66
2022/09/18 09:29:02;;;;;;;2.22;0.88;;;;;;;15.31;58.21;98970.78;4934595;29;20179;-66
2022/09/18 09:32:19;;;;;;;0.65;0.63;;;;;;;15.45;57.57;98976.78;4934172;29;20058;-66
2022/09/18 09:35:02;;;;;;;1.95;1.15;;;;;;;15.52;57.34;98981.00;4908881;29;20099;-66
2022/09/18 09:37:41;;;;;;;1.00;0.90;;;;;;;15.64;57.47;98975.75;4933999;29;20428;-65
2022/09/18 09:40:17;;;;;;;2.53;0.80;;;;;;;15.74;56.88;98975.28;4933829;29;20055;-66
2022/09/18 09:42:54;;;;;;;2.05;0.82;;;;;;;15.72;56.10;98966.69;4918156;29;20052;-65
2022/09/18 09:45:57;;;;;;;1.83;0.80;;;;;;;15.82;56.18;98967.78;4934132;29;20048;-66
2022/09/18 09:49:04;;;;;;;1.10;0.90;;;;;;;15.94;55.78;98959.06;4904805;29;20411;-66
2022/09/18 09:51:56;;;;;;;1.15;0.70;;;;;;;16.06;55.49;98950.09;4927889;29;21749;-67
2022/09/18 09:54:23;;;;;;;2.30;0.90;;;;;;;16.19;55.22;98953.63;4933842;29;20060;-66
2022/09/18 09:57:11;;;;;;;2.42;1.10;;;;;;;16.27;55.58;98953.31;4932659;29;20051;-66
2022/09/18 09:59:56;;;;;;;1.38;0.80;;;;;;;16.15;54.63;98933.78;4933878;29;20060;-66
2022/09/18 10:03:10;;;;;;;2.55;0.80;;;;;;;16.11;54.71;98941.41;4927592;29;20055;-65
2022/09/18 10:05:46;;;;;;;3.10;0.93;;;;;;;16.16;54.35;98938.88;4919528;29;20103;-66
2022/09/18 10:08:38;;;;;;;1.73;1.10;;;;;;;16.19;54.02;98938.44;4915078;29;20052;-65
2022/09/18 10:11:10;;;;;;;2.33;1.05;;;;;;;16.19;54.18;98941.09;4915209;29;20052;-66
2022/09/18 10:13:57;;;;;;;1.13;0.82;;;;;;;16.13;54.34;98941.19;4917078;29;20203;-67
2022/09/18 10:16:30;;;;;;;2.30;0.80;;;;;;;16.10;54.20;98947.78;4932455;23;21214;-67
2022/09/18 10:18:59;;;;;;;2.17;0.73;;;;;;;16.04;54.37;98935.34;4915693;29;20483;-67
2022/09/18 10:21:33;;;;;;;0.90;0.80;;;;;;;16.06;54.24;98935.94;4895733;29;20045;-67
2022/09/18 10:24:18;;;;;;;1.65;0.90;;;;;;;16.02;53.83;98938.25;4911582;29;20100;-67
2022/09/18 10:26:56;;;;;;;1.17;0.60;;;;;;;15.93;53.45;98936.13;4895443;29;20575;-66
2022/09/18 10:29:22;;;;;;;2.47;1.17;;;;;;;15.84;53.93;98943.59;4896868;29;20048;-66
2022/09/18 10:31:56;;;;;;;2.55;1.10;;;;;;;15.74;53.87;98944.09;4912546;29;20060;-67
2022/09/18 10:34:42;;;;;;;2.40;0.82;;;;;;;15.53;53.55;98937.34;4914574;29;20040;-66
2022/09/18 10:37:15;;;;;;;0.98;0.90;;;;;;;15.38;53.63;98938.72;4914214;29;20048;-66
2022/09/18 10:39:49;;;;;;;3.17;1.08;;;;;;;15.48;54.21;98942.53;4914423;29;20048;-69
2022/09/18 10:42:20;;;;;;;1.58;0.90;;;;;;;15.70;54.08;98939.44;4914471;29;20048;-67
2022/09/18 10:44:52;;;;;;;1.30;0.90;;;;;;;15.98;52.98;98926.38;4899104;29;20051;-68
2022/09/18 10:47:29;;;;;;;1.20;0.90;;;;;;;16.25;52.79;98937.53;4914172;29;20044;-68
2022/09/18 10:50:02;;;;;;;1.55;1.13;;;;;;;16.45;52.55;98909.75;4914329;29;20052;-68
2022/09/18 10:52:34;;;;;;;4.07;1.30;;;;;;;16.66;52.42;98922.59;4914245;29;20420;-68
2022/09/18 10:55:08;;;;;;;2.30;1.13;;;;;;;16.65;52.47;98912.13;4899391;29;20080;-68
2022/09/18 10:58:14;;;;;;;2.15;0.98;;;;;;;16.52;52.06;98921.13;4914187;29;20063;-68
2022/09/18 11:00:58;;;;;;;1.45;0.68;;;;;;;16.41;51.58;98925.41;4914511;29;20433;-67
2022/09/18 11:03:34;;;;;;;2.03;1.10;;;;;;;16.31;51.54;98931.28;4921970;29;20040;-67
2022/09/18 11:06:03;;;;;;;1.23;0.80;;;;;;;16.23;51.92;98934.28;4915412;29;20044;-68
2022/09/18 11:08:34;;;;;;;1.40;0.77;;;;;;;16.15;52.18;98928.44;4916011;29;20290;-68
2022/09/18 11:11:05;;;;;;;1.05;0.85;;;;;;;16.09;51.75;98917.63;4917771;29;20055;-68
2022/09/18 11:13:48;;;;;;;1.17;0.98;;;;;;;15.98;51.66;98929.06;4917645;29;20137;-68
2022/09/18 11:16:26;;;;;;;1.73;1.05;;;;;;;15.91;51.51;98922.97;4917198;29;20059;-66
2022/09/18 11:19:02;;;;;;;2.28;1.20;;;;;;;15.92;51.89;98908.63;4917460;29;20056;-66
2022/09/18 11:21:44;;;;;;;1.65;1.10;;;;;;;15.91;51.78;98908.84;4917365;29;20055;-66
2022/09/18 11:24:26;;;;;;;2.55;1.40;;;;;;;15.94;51.74;98905.75;4917570;29;20044;-68
2022/09/18 11:27:02;;;;;;;1.38;1.13;;;;;;;15.95;51.77;98916.16;4902422;29;20051;-67
2022/09/18 11:29:32;;;;;;;1.33;1.10;;;;;;;15.91;51.78;98906.19;4917331;29;20079;-68
2022/09/18 11:32:24;;;;;;;3.22;1.00;;;;;;;15.81;51.27;98907.53;4918607;29;20464;-68
2022/09/18 11:35:01;;;;;;;2.08;1.10;;;;;;;15.70;51.64;98905.59;4916886;29;20095;-68
2022/09/18 11:37:45;;;;;;;1.58;1.10;;;;;;;15.57;50.45;98905.75;4916936;29;20465;-67
2022/09/18 11:40:29;;;;;;;1.98;1.20;;;;;;;15.48;50.63;98907.06;4917101;29;20056;-67
2022/09/18 11:42:56;;;;;;;1.20;0.80;;;;;;;15.46;51.41;98899.28;4917019;29;20059;-68
2022/09/18 11:45:50;;;;;;;2.03;1.10;;;;;;;15.61;50.62;98901.59;4916987;29;20044;-68
2022/09/18 11:48:26;;;;;;;2.53;1.10;;;;;;;15.79;50.42;98892.78;4916780;29;20058;-67
2022/09/18 11:51:00;;;;;;;1.85;0.75;;;;;;;16.01;50.36;98893.16;4918122;29;20059;-68
2022/09/18 11:53:43;;;;;;;1.38;0.85;;;;;;;16.18;49.99;98890.66;4916972;29;20103;-66
2022/09/18 11:56:15;;;;;;;1.13;1.02;;;;;;;16.23;49.83;98888.94;4916576;29;20052;-67
2022/09/18 11:58:55;;;;;;;1.10;1.00;;;;;;;16.21;49.72;98884.88;4916870;29;20063;-66
2022/09/18 12:01:47;;;;;;;1.15;1.05;;;;;;;16.09;49.46;98890.97;4918076;29;20040;-66
2022/09/18 12:04:23;;;;;;;2.55;0.85;;;;;;;16.06;49.64;98880.75;4910776;29;20122;-67
2022/09/18 12:06:56;;;;;;;1.75;1.00;;;;;;;16.05;48.91;98881.81;4917533;29;20055;-66
2022/09/18 12:09:42;;;;;;;2.03;1.20;;;;;;;16.14;49.10;98879.63;4917821;29;20107;-67
2022/09/18 12:12:28;;;;;;;1.65;1.30;;;;;;;16.10;48.82;98879.25;4916667;29;20427;-67